createdAt,value
2018-06-17T00:00:08.997Z,95480.00
2018-06-17T00:02:40.112Z,95481.00
2018-06-17T00:05:11.269Z,95481.00
2018-06-17T00:07:42.488Z,95477.00
2018-06-17T00:10:13.478Z,95482.00
2018-06-17T00:12:44.945Z,95479.00
2018-06-17T00:15:15.934Z,95482.00
2018-06-17T00:17:47.724Z,95477.00
2018-06-17T00:20:18.813Z,95483.00
2018-06-17T00:22:50.126Z,95480.00
2018-06-17T00:25:21.074Z,95479.00
2018-06-17T00:27:52.182Z,95481.00
2018-06-17T00:30:23.250Z,95481.00
2018-06-17T00:32:54.353Z,95477.00
2018-06-17T00:35:25.714Z,95477.00
2018-06-17T00:37:57.098Z,95473.00
2018-06-17T00:40:28.084Z,95473.00
2018-06-17T00:42:59.071Z,95469.00
2018-06-17T00:45:30.062Z,95467.00
2018-06-17T00:48:01.936Z,95468.00
2018-06-17T00:50:33.000Z,95470.00
2018-06-17T00:53:04.103Z,95473.00
2018-06-17T00:55:35.369Z,95473.00
2018-06-17T00:58:06.893Z,95476.00
2018-06-17T01:00:37.919Z,95474.00
2018-06-17T01:03:09.031Z,95476.00
2018-06-17T01:05:40.861Z,95477.00
2018-06-17T01:08:12.080Z,95478.00
2018-06-17T01:10:43.137Z,95478.00
2018-06-17T01:13:14.174Z,95479.00
2018-06-17T01:15:45.084Z,95476.00
2018-06-17T01:18:17.522Z,95478.00
2018-06-17T01:20:49.319Z,95474.00
2018-06-17T01:23:21.318Z,95474.00
2018-06-17T01:25:52.283Z,95477.00
2018-06-17T01:28:23.369Z,95479.00
2018-06-17T01:30:54.351Z,95477.00
2018-06-17T01:33:25.401Z,95478.00
2018-06-17T01:35:58.224Z,95470.00
2018-06-17T01:38:29.411Z,95465.00
2018-06-17T01:41:00.737Z,95464.00
2018-06-17T01:43:39.936Z,95464.00
2018-06-17T01:46:13.041Z,95465.00
2018-06-17T01:48:44.003Z,95463.00
2018-06-17T01:51:15.151Z,95477.00
2018-06-17T01:53:46.455Z,95474.00
2018-06-17T01:56:17.437Z,95478.00
2018-06-17T01:58:48.496Z,95479.00
2018-06-17T02:01:19.505Z,95476.00
2018-06-17T02:03:55.655Z,95478.00
2018-06-17T02:06:31.854Z,95476.00
2018-06-17T02:09:08.202Z,95475.00
2018-06-17T02:11:41.654Z,95478.00
2018-06-17T02:14:17.604Z,95475.00
2018-06-17T02:16:55.245Z,95480.00
2018-06-17T02:19:28.061Z,95478.00
2018-06-17T02:21:59.736Z,95479.00
2018-06-17T02:24:30.809Z,95473.00
2018-06-17T02:27:01.916Z,95472.00
2018-06-17T02:29:32.895Z,95476.00
2018-06-17T02:32:04.150Z,95476.00
2018-06-17T02:34:35.104Z,95478.00
2018-06-17T02:37:06.694Z,95475.00
2018-06-17T02:39:37.910Z,95476.00
2018-06-17T02:42:09.777Z,95474.00
2018-06-17T02:44:40.773Z,95475.00
2018-06-17T02:47:16.910Z,95475.00
2018-06-17T02:49:49.409Z,95472.00
2018-06-17T02:52:25.553Z,95481.00
2018-06-17T02:54:56.903Z,95475.00
2018-06-17T02:57:27.937Z,95472.00
2018-06-17T02:59:59.111Z,95471.00
2018-06-17T03:02:30.256Z,95472.00
2018-06-17T03:05:01.398Z,95476.00
2018-06-17T03:07:32.539Z,95475.00
2018-06-17T03:10:03.651Z,95476.00
2018-06-17T03:12:34.773Z,95468.00
2018-06-17T03:15:05.768Z,95473.00
2018-06-17T03:17:36.906Z,95472.00
2018-06-17T03:20:07.877Z,95471.00
2018-06-17T03:22:39.062Z,95477.00
2018-06-17T03:25:15.130Z,95478.00
2018-06-17T03:27:51.359Z,95477.00
2018-06-17T03:30:27.329Z,95478.00
2018-06-17T03:33:03.315Z,95483.00
2018-06-17T03:35:39.364Z,95482.00
2018-06-17T03:38:10.484Z,95480.00
2018-06-17T03:40:41.541Z,95477.00
2018-06-17T03:43:12.520Z,95478.00
2018-06-17T03:45:43.540Z,95479.00
2018-06-17T03:48:14.615Z,95479.00
2018-06-17T03:50:45.655Z,95480.00
2018-06-17T03:53:16.732Z,95482.00
2018-06-17T03:55:47.985Z,95486.00
2018-06-17T03:58:19.097Z,95485.00
2018-06-17T04:00:50.202Z,95490.00
2018-06-17T04:03:21.365Z,95489.00
2018-06-17T04:05:52.645Z,95490.00
2018-06-17T04:08:23.784Z,95493.00
2018-06-17T04:10:54.922Z,95488.00
2018-06-17T04:13:26.050Z,95494.00
2018-06-17T04:15:57.207Z,95490.00
2018-06-17T04:18:28.289Z,95495.00
2018-06-17T04:20:59.330Z,95497.00
2018-06-17T04:23:30.941Z,95496.00
2018-06-17T04:26:02.596Z,95497.00
2018-06-17T04:28:33.941Z,95500.00
2018-06-17T04:31:05.247Z,95496.00
2018-06-17T04:33:36.346Z,95498.00
2018-06-17T04:36:07.488Z,95497.00
2018-06-17T04:38:38.628Z,95495.00
2018-06-17T04:41:09.709Z,95494.00
2018-06-17T04:43:40.822Z,95490.00
2018-06-17T04:46:12.125Z,95489.00
2018-06-17T04:48:43.233Z,95491.00
2018-06-17T04:51:14.324Z,95492.00
2018-06-17T04:53:46.008Z,95492.00
2018-06-17T04:56:17.212Z,95491.00
2018-06-17T04:58:48.255Z,95489.00
2018-06-17T05:01:19.398Z,95491.00
2018-06-17T05:03:50.452Z,95486.00
2018-06-17T05:06:21.615Z,95490.00
2018-06-17T05:08:52.627Z,95497.00
2018-06-17T05:11:23.715Z,95498.00
2018-06-17T05:13:54.845Z,95501.00
2018-06-17T05:16:26.047Z,95504.00
2018-06-17T05:18:57.060Z,95511.00
2018-06-17T05:21:28.102Z,95514.00
2018-06-17T05:23:59.229Z,95511.00
2018-06-17T05:26:30.333Z,95510.00
2018-06-17T05:29:01.403Z,95507.00
2018-06-17T05:31:32.549Z,95510.00
2018-06-17T05:34:03.601Z,95514.00
2018-06-17T05:36:35.117Z,95515.00
2018-06-17T05:39:09.982Z,95511.00
2018-06-17T05:41:41.117Z,95508.00
2018-06-17T05:44:12.235Z,95510.00
2018-06-17T05:46:43.309Z,95511.00
2018-06-17T05:49:14.427Z,95512.00
2018-06-17T05:51:45.539Z,95512.00
2018-06-17T05:54:16.769Z,95507.00
2018-06-17T05:56:47.841Z,95508.00
2018-06-17T05:59:18.885Z,95499.00
2018-06-17T06:01:49.970Z,95499.00
2018-06-17T06:04:21.034Z,95498.00
2018-06-17T06:06:52.132Z,95500.00
2018-06-17T06:09:23.253Z,95504.00
2018-06-17T06:11:54.389Z,95501.00
2018-06-17T06:14:25.565Z,95504.00
2018-06-17T06:16:56.812Z,95508.00
2018-06-17T06:19:27.995Z,95507.00
2018-06-17T06:21:59.060Z,95506.00
2018-06-17T06:24:30.483Z,95506.00
2018-06-17T06:27:01.535Z,95511.00
2018-06-17T06:29:32.921Z,95509.00
2018-06-17T06:32:04.046Z,95508.00
2018-06-17T06:34:35.191Z,95500.00
2018-06-17T06:37:06.190Z,95505.00
2018-06-17T06:39:37.328Z,95503.00
2018-06-17T06:42:08.440Z,95507.00
2018-06-17T06:44:40.873Z,95504.00
2018-06-17T06:47:11.929Z,95501.00
2018-06-17T06:49:42.892Z,95502.00
2018-06-17T06:52:14.835Z,95509.00
2018-06-17T06:54:45.857Z,95510.00
2018-06-17T06:57:16.913Z,95507.00
2018-06-17T06:59:47.906Z,95505.00
2018-06-17T07:02:29.591Z,95502.00
2018-06-17T07:05:11.399Z,95505.00
2018-06-17T07:08:56.720Z,95504.00
2018-06-17T07:11:28.121Z,95501.00
2018-06-17T07:13:59.192Z,95505.00
2018-06-17T07:16:40.835Z,95505.00
2018-06-17T07:19:11.945Z,95506.00
2018-06-17T07:21:43.436Z,95509.00
2018-06-17T07:24:14.249Z,95509.00
2018-06-17T07:26:56.789Z,95511.00
2018-06-17T07:29:39.746Z,95514.00
2018-06-17T07:32:10.400Z,95509.00
2018-06-17T07:34:41.077Z,95505.00
2018-06-17T07:37:11.913Z,95511.00
2018-06-17T07:41:05.973Z,95509.00
2018-06-17T07:43:38.736Z,95511.00
2018-06-17T07:46:09.462Z,95515.00
2018-06-17T07:49:49.688Z,95517.00
2018-06-17T07:52:32.369Z,95516.00
2018-06-17T07:55:04.299Z,95515.00
2018-06-17T07:57:35.762Z,95520.00
2018-06-17T08:00:06.309Z,95522.00
2018-06-17T08:02:36.958Z,95518.00
2018-06-17T08:05:07.718Z,95525.00
2018-06-17T08:07:38.577Z,95528.00
2018-06-17T08:10:09.653Z,95533.00
2018-06-17T08:12:40.405Z,95533.00
2018-06-17T08:15:11.154Z,95531.00
2018-06-17T08:17:42.238Z,95530.00
2018-06-17T08:20:13.199Z,95531.00
2018-06-17T08:22:43.737Z,95528.00
2018-06-17T08:25:14.510Z,95529.00
2018-06-17T08:27:45.226Z,95528.00
2018-06-17T08:30:16.066Z,95530.00
2018-06-17T08:32:46.970Z,95531.00
2018-06-17T08:35:17.906Z,95535.00
2018-06-17T08:37:48.806Z,95532.00
2018-06-17T08:40:19.700Z,95529.00
2018-06-17T08:42:50.948Z,95529.00
2018-06-17T08:45:21.947Z,95532.00
2018-06-17T08:47:56.839Z,95530.00
2018-06-17T08:50:28.299Z,95530.00
2018-06-17T08:52:59.538Z,95526.00
2018-06-17T08:55:30.479Z,95537.00
2018-06-17T08:58:01.314Z,95537.00
2018-06-17T09:00:32.192Z,95542.00
2018-06-17T09:03:03.763Z,95546.00
2018-06-17T09:05:34.471Z,95542.00
2018-06-17T09:08:05.061Z,95545.00
2018-06-17T09:10:36.416Z,95542.00
2018-06-17T09:13:07.132Z,95539.00
2018-06-17T09:15:37.958Z,95545.00
2018-06-17T09:18:08.704Z,95544.00
2018-06-17T09:20:39.545Z,95543.00
2018-06-17T09:23:10.456Z,95545.00
2018-06-17T09:25:41.349Z,95551.00
2018-06-17T09:28:12.156Z,95552.00
2018-06-17T09:30:43.040Z,95552.00
2018-06-17T09:33:13.901Z,95553.00
2018-06-17T09:35:44.666Z,95551.00
2018-06-17T09:38:15.669Z,95552.00
2018-06-17T09:40:46.542Z,95549.00
2018-06-17T09:43:17.349Z,95548.00
2018-06-17T09:45:48.240Z,95550.00
2018-06-17T09:48:19.149Z,95549.00
2018-06-17T09:50:52.739Z,95557.00
2018-06-17T09:53:23.769Z,95561.00
2018-06-17T09:55:54.761Z,95553.00
2018-06-17T09:58:25.783Z,95554.00
2018-06-17T10:00:56.680Z,95554.00
2018-06-17T10:03:27.641Z,95551.00
2018-06-17T10:05:58.550Z,95557.00
2018-06-17T10:08:29.648Z,95563.00
2018-06-17T10:11:02.659Z,95560.00
2018-06-17T10:13:37.180Z,95557.00
2018-06-17T10:16:08.386Z,95556.00
2018-06-17T10:18:39.502Z,95561.00
2018-06-17T10:21:10.895Z,95556.00
2018-06-17T10:23:42.104Z,95552.00
2018-06-17T10:26:13.113Z,95553.00
2018-06-17T10:28:44.392Z,95554.00
2018-06-17T10:31:15.469Z,95553.00
2018-06-17T10:33:47.089Z,95559.00
2018-06-17T10:36:18.187Z,95561.00
2018-06-17T10:38:49.481Z,95565.00
2018-06-17T10:41:20.422Z,95560.00
2018-06-17T10:43:51.384Z,95561.00
2018-06-17T10:46:22.315Z,95557.00
2018-06-17T10:48:53.591Z,95566.00
2018-06-17T10:51:24.527Z,95570.00
2018-06-17T10:53:55.578Z,95567.00
2018-06-17T10:56:27.742Z,95568.00
2018-06-17T10:58:58.727Z,95562.00
2018-06-17T11:01:29.648Z,95564.00
2018-06-17T11:04:00.797Z,95568.00
2018-06-17T11:06:31.870Z,95570.00
2018-06-17T11:09:03.217Z,95569.00
2018-06-17T11:11:34.403Z,95568.00
2018-06-17T11:14:05.333Z,95567.00
2018-06-17T11:16:36.718Z,95565.00
2018-06-17T11:19:07.867Z,95570.00
2018-06-17T11:21:39.017Z,95571.00
2018-06-17T11:24:09.978Z,95574.00
2018-06-17T11:26:41.095Z,95566.00
2018-06-17T11:29:12.164Z,95570.00
2018-06-17T11:31:49.001Z,95565.00
2018-06-17T11:34:19.949Z,95574.00
2018-06-17T11:36:51.026Z,95579.00
2018-06-17T11:39:22.130Z,95577.00
2018-06-17T11:41:54.241Z,95573.00
2018-06-17T11:44:25.326Z,95567.00
2018-06-17T11:46:56.783Z,95569.00
2018-06-17T11:49:27.853Z,95567.00
2018-06-17T11:51:58.965Z,95560.00
2018-06-17T11:54:30.155Z,95566.00
2018-06-17T11:57:01.354Z,95570.00
2018-06-17T11:59:32.493Z,95567.00
2018-06-17T12:02:03.559Z,95563.00
2018-06-17T12:04:34.553Z,95565.00
2018-06-17T12:07:05.825Z,95564.00
2018-06-17T12:09:36.746Z,95561.00
2018-06-17T12:12:07.880Z,95558.00
2018-06-17T12:14:38.856Z,95556.00
2018-06-17T12:17:10.022Z,95554.00
2018-06-17T12:19:41.133Z,95560.00
2018-06-17T12:22:12.507Z,95561.00
2018-06-17T12:24:43.592Z,95562.00
2018-06-17T12:27:14.681Z,95560.00
2018-06-17T12:29:45.708Z,95558.00
2018-06-17T12:32:16.733Z,95558.00
2018-06-17T12:34:47.827Z,95554.00
2018-06-17T12:37:19.009Z,95547.00
2018-06-17T12:39:50.074Z,95550.00
2018-06-17T12:42:21.130Z,95541.00
2018-06-17T12:44:52.189Z,95547.00
2018-06-17T12:47:23.178Z,95547.00
2018-06-17T12:49:54.433Z,95548.00
2018-06-17T12:52:25.455Z,95548.00
2018-06-17T12:54:56.494Z,95549.00
2018-06-17T12:57:28.471Z,95549.00
2018-06-17T12:59:59.501Z,95545.00
2018-06-17T13:02:30.455Z,95549.00
2018-06-17T13:05:01.619Z,95552.00
2018-06-17T13:07:32.598Z,95543.00
2018-06-17T13:10:03.911Z,95541.00
2018-06-17T13:12:34.984Z,95550.00
2018-06-17T13:15:05.979Z,95546.00
2018-06-17T13:17:37.117Z,95550.00
2018-06-17T13:20:08.147Z,95548.00
2018-06-17T13:22:39.171Z,95545.00
2018-06-17T13:25:10.536Z,95557.00
2018-06-17T13:27:41.689Z,95553.00
2018-06-17T13:30:13.010Z,95559.00
2018-06-17T13:32:44.155Z,95561.00
2018-06-17T13:35:17.965Z,95565.00
2018-06-17T13:37:49.002Z,95573.00
2018-06-17T13:40:20.071Z,95563.00
2018-06-17T13:42:51.184Z,95560.00
2018-06-17T13:45:22.700Z,95567.00
2018-06-17T13:47:53.631Z,95568.00
2018-06-17T13:50:24.799Z,95558.00
2018-06-17T13:52:57.164Z,95553.00
2018-06-17T13:55:28.354Z,95556.00
2018-06-17T13:57:59.405Z,95558.00
2018-06-17T14:00:30.465Z,95554.00
2018-06-17T14:03:01.558Z,95548.00
2018-06-17T14:05:32.684Z,95554.00
2018-06-17T14:08:04.441Z,95556.00
2018-06-17T14:10:35.542Z,95556.00
2018-06-17T14:13:06.866Z,95559.00
2018-06-17T14:15:37.894Z,95558.00
2018-06-17T14:18:08.876Z,95565.00
2018-06-17T14:20:39.953Z,95563.00
2018-06-17T14:23:10.992Z,95563.00
2018-06-17T14:25:42.103Z,95559.00
2018-06-17T14:28:13.127Z,95562.00
2018-06-17T14:30:44.231Z,95565.00
2018-06-17T14:33:15.995Z,95568.00
2018-06-17T14:35:47.043Z,95562.00
2018-06-17T14:38:18.312Z,95566.00
2018-06-17T14:40:54.404Z,95576.00
2018-06-17T14:43:30.806Z,95572.00
2018-06-17T14:46:06.709Z,95570.00
2018-06-17T14:48:42.785Z,95583.00
2018-06-17T14:51:18.676Z,95586.00
2018-06-17T14:53:49.744Z,95589.00
2018-06-17T14:56:20.910Z,95592.00
2018-06-17T14:58:52.205Z,95585.00
2018-06-17T15:01:23.125Z,95583.00
2018-06-17T15:03:54.204Z,95584.00
2018-06-17T15:06:25.128Z,95585.00
2018-06-17T15:08:56.294Z,95591.00
2018-06-17T15:11:27.409Z,95593.00
2018-06-17T15:13:58.923Z,95592.00
2018-06-17T15:16:29.922Z,95592.00
2018-06-17T15:19:02.138Z,95590.00
2018-06-17T15:21:33.258Z,95588.00
2018-06-17T15:24:05.198Z,95590.00
2018-06-17T15:26:36.220Z,95586.00
2018-06-17T15:29:07.243Z,95591.00
2018-06-17T15:31:43.751Z,95589.00
2018-06-17T15:34:20.043Z,95590.00
2018-06-17T15:36:56.210Z,95588.00
2018-06-17T15:39:32.534Z,95587.00
2018-06-17T15:42:03.915Z,95583.00
2018-06-17T15:44:34.957Z,95585.00
2018-06-17T15:47:05.959Z,95587.00
2018-06-17T15:49:36.996Z,95586.00
2018-06-17T15:52:08.380Z,95582.00
2018-06-17T15:54:39.466Z,95583.00
2018-06-17T15:57:10.700Z,95587.00
2018-06-17T15:59:41.700Z,95594.00
2018-06-17T16:02:12.876Z,95589.00
2018-06-17T16:04:43.895Z,95590.00
2018-06-17T16:07:15.376Z,95584.00
2018-06-17T16:09:46.380Z,95583.00
2018-06-17T16:12:22.578Z,95596.00
2018-06-17T16:14:58.726Z,95594.00
2018-06-17T16:17:34.635Z,95601.00
2018-06-17T16:20:11.303Z,95589.00
2018-06-17T16:22:42.592Z,95586.00
2018-06-17T16:25:13.839Z,95583.00
2018-06-17T16:27:44.894Z,95581.00
2018-06-17T16:30:15.942Z,95581.00
2018-06-17T16:32:47.181Z,95573.00
2018-06-17T16:35:18.318Z,95591.00
2018-06-17T16:37:50.270Z,95585.00
2018-06-17T16:40:21.477Z,95589.00
2018-06-17T16:42:53.318Z,95594.00
2018-06-17T16:45:24.320Z,95591.00
2018-06-17T16:47:55.600Z,95600.00
2018-06-17T16:50:26.807Z,95599.00
2018-06-17T16:53:02.761Z,95599.00
2018-06-17T16:55:38.871Z,95595.00
2018-06-17T16:58:14.908Z,95599.00
2018-06-17T17:00:46.031Z,95592.00
2018-06-17T17:03:17.035Z,95598.00
2018-06-17T17:05:48.081Z,95602.00
2018-06-17T17:08:19.223Z,95608.00
2018-06-17T17:10:50.847Z,95617.00
2018-06-17T17:13:22.090Z,95622.00
2018-06-17T17:15:55.393Z,95623.00
2018-06-17T17:18:28.676Z,95626.00
2018-06-17T17:21:01.643Z,95627.00
2018-06-17T17:23:34.575Z,95625.00
2018-06-17T17:26:06.528Z,95626.00
2018-06-17T17:28:38.895Z,95627.00
2018-06-17T17:31:10.669Z,95612.00
2018-06-17T17:33:47.905Z,95614.00
2018-06-17T17:36:24.322Z,95618.00
2018-06-17T17:39:00.456Z,95620.00
2018-06-17T17:41:31.645Z,95631.00
2018-06-17T17:44:03.964Z,95629.00
2018-06-17T17:46:40.087Z,95633.00
2018-06-17T17:49:11.105Z,95629.00
2018-06-17T17:51:42.139Z,95635.00
2018-06-17T17:54:13.360Z,95641.00
2018-06-17T17:56:44.658Z,95639.00
2018-06-17T17:59:15.906Z,95646.00
2018-06-17T18:01:47.061Z,95641.00
2018-06-17T18:04:18.611Z,95641.00
2018-06-17T18:06:50.510Z,95643.00
2018-06-17T18:09:23.071Z,95643.00
2018-06-17T18:11:54.289Z,95643.00
2018-06-17T18:14:25.797Z,95644.00
2018-06-17T18:16:56.809Z,95652.00
2018-06-17T18:19:28.434Z,95652.00
2018-06-17T18:21:59.594Z,95658.00
2018-06-17T18:24:31.114Z,95657.00
2018-06-17T18:27:07.459Z,95656.00
2018-06-17T18:29:43.899Z,95658.00
2018-06-17T18:32:20.326Z,95659.00
2018-06-17T18:34:57.381Z,95663.00
2018-06-17T18:37:28.519Z,95671.00
2018-06-17T18:39:59.869Z,95672.00
2018-06-17T18:42:31.003Z,95670.00
2018-06-17T18:45:02.980Z,95673.00
2018-06-17T18:47:35.765Z,95676.00
2018-06-17T18:50:07.021Z,95679.00
2018-06-17T18:52:38.656Z,95677.00
2018-06-17T18:55:11.357Z,95684.00
2018-06-17T18:57:42.990Z,95683.00
2018-06-17T19:00:14.537Z,95687.00
2018-06-17T19:02:46.082Z,95692.00
2018-06-17T19:05:18.002Z,95698.00
2018-06-17T19:07:49.505Z,95701.00
2018-06-17T19:10:26.440Z,95705.00
2018-06-17T19:13:02.776Z,95703.00
2018-06-17T19:15:39.337Z,95705.00
2018-06-17T19:18:13.606Z,95707.00
2018-06-17T19:20:46.028Z,95714.00
2018-06-17T19:23:17.588Z,95710.00
2018-06-17T19:25:49.379Z,95714.00
2018-06-17T19:28:21.319Z,95722.00
2018-06-17T19:30:54.488Z,95722.00
2018-06-17T19:33:28.291Z,95719.00
2018-06-17T19:35:59.810Z,95727.00
2018-06-17T19:38:31.373Z,95730.00
2018-06-17T19:41:02.900Z,95736.00
2018-06-17T19:43:34.130Z,95740.00
2018-06-17T19:46:05.405Z,95744.00
2018-06-17T19:48:36.954Z,95749.00
2018-06-17T19:51:13.130Z,95751.00
2018-06-17T19:54:51.232Z,95746.00
2018-06-17T19:57:27.865Z,95751.00
2018-06-17T20:00:04.061Z,95754.00
2018-06-17T20:02:35.664Z,95756.00
2018-06-17T20:05:08.584Z,95753.00
2018-06-17T20:07:42.101Z,95757.00
2018-06-17T20:10:14.267Z,95756.00
2018-06-17T20:12:46.828Z,95758.00
2018-06-17T20:15:18.948Z,95758.00
2018-06-17T20:17:51.524Z,95758.00
2018-06-17T20:20:24.327Z,95763.00
2018-06-17T20:22:56.956Z,95766.00
2018-06-17T20:25:31.597Z,95768.00
2018-06-17T20:28:04.593Z,95763.00
2018-06-17T20:30:35.801Z,95772.00
2018-06-17T20:33:12.093Z,95772.00
2018-06-17T20:35:48.400Z,95776.00
2018-06-17T20:38:25.315Z,95784.00
2018-06-17T20:41:01.706Z,95781.00
2018-06-17T20:43:37.904Z,95776.00
2018-06-17T20:46:09.116Z,95776.00
2018-06-17T20:48:40.650Z,95777.00
2018-06-17T20:51:12.184Z,95776.00
2018-06-17T20:53:43.530Z,95780.00
2018-06-17T20:56:15.359Z,95776.00
2018-06-17T20:58:46.854Z,95781.00
2018-06-17T21:01:18.464Z,95781.00
2018-06-17T21:03:49.592Z,95781.00
2018-06-17T21:06:20.902Z,95779.00
2018-06-17T21:08:52.106Z,95767.00
2018-06-17T21:11:23.342Z,95758.00
2018-06-17T21:13:54.573Z,95758.00
2018-06-17T21:16:25.762Z,95764.00
2018-06-17T21:19:02.616Z,95771.00
2018-06-17T21:21:38.841Z,95776.00
2018-06-17T21:24:16.566Z,95776.00
2018-06-17T21:26:52.759Z,95784.00
2018-06-17T21:29:24.217Z,95784.00
2018-06-17T21:31:55.346Z,95787.00
2018-06-17T21:34:28.688Z,95791.00
2018-06-17T21:37:00.134Z,95792.00
2018-06-17T21:39:31.393Z,95801.00
2018-06-17T21:42:02.520Z,95796.00
2018-06-17T21:44:33.797Z,95800.00
2018-06-17T21:47:05.043Z,95796.00
2018-06-17T21:49:36.731Z,95798.00
2018-06-17T21:52:08.361Z,95802.00
2018-06-17T21:54:39.813Z,95802.00
2018-06-17T21:57:11.185Z,95807.00
2018-06-17T21:59:42.553Z,95808.00
2018-06-17T22:02:13.830Z,95813.00
2018-06-17T22:04:45.669Z,95811.00
2018-06-17T22:07:17.570Z,95816.00
2018-06-17T22:09:54.660Z,95812.00
2018-06-17T22:12:31.148Z,95811.00
2018-06-17T22:15:08.132Z,95813.00
2018-06-17T22:17:44.219Z,95814.00
2018-06-17T22:20:15.516Z,95811.00
2018-06-17T22:22:46.835Z,95815.00
2018-06-17T22:25:19.073Z,95815.00
2018-06-17T22:27:50.289Z,95818.00
2018-06-17T22:30:21.722Z,95822.00
2018-06-17T22:32:53.085Z,95820.00
2018-06-17T22:35:24.155Z,95822.00
2018-06-17T22:37:55.507Z,95823.00
2018-06-17T22:40:26.697Z,95827.00
2018-06-17T22:42:57.813Z,95826.00
2018-06-17T22:45:29.175Z,95827.00
2018-06-17T22:48:00.887Z,95832.00
2018-06-17T22:50:32.234Z,95832.00
2018-06-17T22:53:13.812Z,95831.00
2018-06-17T22:55:45.269Z,95835.00
2018-06-17T22:58:21.678Z,95837.00
2018-06-17T23:00:59.312Z,95836.00
2018-06-17T23:03:36.298Z,95842.00
2018-06-17T23:06:12.931Z,95844.00
2018-06-17T23:09:51.750Z,95842.00
2018-06-17T23:12:23.024Z,95844.00
2018-06-17T23:14:54.193Z,95843.00
2018-06-17T23:17:26.285Z,95838.00
2018-06-17T23:19:57.555Z,95847.00
2018-06-17T23:22:29.408Z,95842.00
2018-06-17T23:25:00.692Z,95852.00
2018-06-17T23:27:31.772Z,95852.00
2018-06-17T23:30:02.892Z,95849.00
2018-06-17T23:32:34.833Z,95852.00
2018-06-17T23:35:06.035Z,95851.00
2018-06-17T23:37:38.323Z,95861.00
2018-06-17T23:40:09.577Z,95861.00
2018-06-17T23:42:41.050Z,95862.00
2018-06-17T23:45:12.148Z,95858.00
2018-06-17T23:47:48.953Z,95860.00
2018-06-17T23:50:24.996Z,95859.00
2018-06-17T23:53:01.307Z,95854.00
2018-06-17T23:55:37.589Z,95852.00
2018-06-17T23:58:09.142Z,95857.00
